createdAt,value
2018-04-30T00:02:52.305Z,90.20
2018-04-30T00:05:55.838Z,90.00
2018-04-30T00:08:59.106Z,90.40
2018-04-30T00:12:02.335Z,90.60
2018-04-30T00:15:06.122Z,90.70
2018-04-30T00:18:09.396Z,90.70
2018-04-30T00:21:12.720Z,90.90
2018-04-30T00:24:16.110Z,90.80
2018-04-30T00:27:19.333Z,91.00
2018-04-30T00:30:22.557Z,91.00
2018-04-30T00:33:25.840Z,91.20
2018-04-30T00:39:40.470Z,91.30
2018-04-30T00:42:43.804Z,91.10
2018-04-30T00:45:47.037Z,91.40
2018-04-30T00:48:50.261Z,91.40
2018-04-30T00:51:54.330Z,92.10
2018-04-30T00:55:00.922Z,92.00
2018-04-30T00:58:04.219Z,92.20
2018-04-30T01:01:07.664Z,91.90
2018-04-30T01:04:10.960Z,92.20
2018-04-30T01:07:14.980Z,92.50
2018-04-30T01:10:19.096Z,92.70
2018-04-30T01:13:23.093Z,92.50
2018-04-30T01:16:26.656Z,92.40
2018-04-30T01:19:29.980Z,92.90
2018-04-30T01:22:33.999Z,93.10
2018-04-30T01:25:37.217Z,93.00
2018-04-30T01:28:40.818Z,93.20
2018-04-30T01:31:44.109Z,93.40
2018-04-30T01:34:47.620Z,93.40
2018-04-30T01:37:50.959Z,93.40
2018-04-30T01:40:54.233Z,93.60
2018-04-30T01:43:57.482Z,93.70
2018-04-30T01:47:01.582Z,93.60
2018-04-30T01:50:05.099Z,93.50
2018-04-30T01:53:08.556Z,93.50
2018-04-30T01:56:12.610Z,93.90
2018-04-30T01:59:16.038Z,93.80
2018-04-30T02:02:19.469Z,93.90
2018-04-30T02:05:22.770Z,93.80
2018-04-30T02:08:26.099Z,93.90
2018-04-30T02:11:29.462Z,94.00
2018-04-30T02:14:32.713Z,93.70
2018-04-30T02:17:36.683Z,94.20
2018-04-30T02:20:40.889Z,94.00
2018-04-30T02:23:44.126Z,94.00
2018-04-30T02:26:47.448Z,93.80
2018-04-30T02:29:50.742Z,93.80
2018-04-30T02:32:54.755Z,94.20
2018-04-30T02:35:58.123Z,94.10
2018-04-30T02:39:01.346Z,94.20
2018-04-30T02:42:04.715Z,94.50
2018-04-30T02:45:07.943Z,94.40
2018-04-30T02:48:12.039Z,94.50
2018-04-30T02:51:15.236Z,94.30
2018-04-30T02:54:18.651Z,94.80
2018-04-30T02:57:23.044Z,95.00
2018-04-30T03:00:26.251Z,94.90
2018-04-30T03:03:33.942Z,95.00
2018-04-30T03:06:37.143Z,94.90
2018-04-30T03:09:40.389Z,95.10
2018-04-30T03:12:44.326Z,95.70
2018-04-30T03:15:48.003Z,95.60
2018-04-30T03:18:58.484Z,95.60
2018-04-30T03:22:01.809Z,95.20
2018-04-30T03:25:05.052Z,95.60
2018-04-30T03:28:08.418Z,95.60
2018-04-30T03:34:22.894Z,95.90
2018-04-30T03:37:26.907Z,96.10
2018-04-30T03:40:30.167Z,95.80
2018-04-30T03:43:33.413Z,95.60
2018-04-30T03:46:37.933Z,94.40
2018-04-30T03:49:41.757Z,94.30
2018-04-30T03:52:44.949Z,94.10
2018-04-30T03:55:48.406Z,93.70
2018-04-30T03:58:51.749Z,92.90
2018-04-30T04:02:07.613Z,91.90
2018-04-30T04:05:26.493Z,91.90
2018-04-30T04:08:30.693Z,91.50
2018-04-30T04:11:33.994Z,91.00
2018-04-30T04:14:37.438Z,90.20
2018-04-30T04:17:41.014Z,90.40
2018-04-30T04:20:44.497Z,89.40
2018-04-30T04:23:47.727Z,90.10
2018-04-30T04:26:50.939Z,89.10
2018-04-30T04:30:10.776Z,86.60
2018-04-30T04:33:25.767Z,87.20
2018-04-30T04:36:29.232Z,87.10
2018-04-30T04:39:44.778Z,87.50
2018-04-30T04:42:50.230Z,86.90
2018-04-30T04:46:09.424Z,86.00
2018-04-30T04:52:58.129Z,84.90
2018-04-30T04:56:05.324Z,84.10
2018-04-30T04:59:09.288Z,83.60
2018-04-30T05:02:12.949Z,84.00
2018-04-30T05:05:20.801Z,85.50
2018-04-30T05:08:23.994Z,84.60
2018-04-30T05:11:27.338Z,84.50
2018-04-30T05:14:31.159Z,83.30
2018-04-30T05:17:36.168Z,83.80
2018-04-30T05:20:41.023Z,83.50
2018-04-30T05:23:45.256Z,82.00
2018-04-30T05:27:44.288Z,81.70
2018-04-30T05:30:54.517Z,80.60
2018-04-30T05:33:58.533Z,80.70
2018-04-30T05:37:14.729Z,80.10
2018-04-30T05:40:18.809Z,80.10
2018-04-30T05:43:22.106Z,79.90
2018-04-30T05:46:35.287Z,79.00
2018-04-30T05:49:43.449Z,79.80
2018-04-30T05:52:46.842Z,79.50
2018-04-30T05:55:52.445Z,79.50
2018-04-30T05:58:55.899Z,80.40
2018-04-30T06:01:59.362Z,80.30
2018-04-30T06:05:02.809Z,80.60
2018-04-30T06:08:06.349Z,80.10
2018-04-30T06:11:09.623Z,79.60
2018-04-30T06:14:13.755Z,79.80
2018-04-30T06:17:20.564Z,79.60
2018-04-30T06:20:23.996Z,79.90
2018-04-30T06:23:27.213Z,80.10
2018-04-30T06:26:31.129Z,78.50
2018-04-30T06:29:34.368Z,78.60
2018-04-30T06:32:37.850Z,78.50
2018-04-30T06:35:41.215Z,78.40
2018-04-30T06:38:44.686Z,79.50
2018-04-30T06:41:47.903Z,79.10
2018-04-30T06:44:51.285Z,79.30
2018-04-30T06:47:55.645Z,79.60
2018-04-30T06:51:00.779Z,78.60
2018-04-30T06:54:04.098Z,78.40
2018-04-30T06:57:07.436Z,78.60
2018-04-30T07:00:10.802Z,77.40
2018-04-30T07:03:14.103Z,75.50
2018-04-30T07:06:17.401Z,74.40
2018-04-30T07:09:21.566Z,71.70
2018-04-30T07:12:25.440Z,71.20
2018-04-30T07:15:28.747Z,70.90
2018-04-30T07:18:32.007Z,70.60
2018-04-30T07:21:37.664Z,69.40
2018-04-30T07:24:41.091Z,69.30
2018-04-30T07:27:44.401Z,67.10
2018-04-30T07:30:47.511Z,64.10
2018-04-30T07:33:51.559Z,59.40
2018-04-30T07:36:55.019Z,59.20
2018-04-30T07:39:58.364Z,56.00
2018-04-30T07:43:01.600Z,53.70
2018-04-30T07:46:05.171Z,51.30
2018-04-30T07:49:08.458Z,49.90
2018-04-30T07:52:11.714Z,52.30
2018-04-30T07:55:14.956Z,50.60
2018-04-30T07:58:18.230Z,52.50
2018-04-30T08:01:21.649Z,54.00
2018-04-30T08:04:24.892Z,57.50
2018-04-30T08:07:28.082Z,57.50
2018-04-30T08:10:32.727Z,60.60
2018-04-30T08:13:36.038Z,59.70
2018-04-30T08:16:40.040Z,60.80
2018-04-30T08:19:44.005Z,63.30
2018-04-30T08:22:47.517Z,63.20
2018-04-30T08:25:50.791Z,62.90
2018-04-30T08:28:54.131Z,65.20
2018-04-30T08:31:57.355Z,67.30
2018-04-30T08:35:00.626Z,68.00
2018-04-30T08:38:04.063Z,67.10
2018-04-30T08:41:08.036Z,67.90
2018-04-30T08:44:11.755Z,67.80
2018-04-30T08:47:15.133Z,70.80
2018-04-30T08:50:18.351Z,72.60
2018-04-30T08:53:22.364Z,77.70
2018-04-30T08:56:26.341Z,76.60
2018-04-30T08:59:29.546Z,76.20
2018-04-30T09:02:32.827Z,76.10
2018-04-30T09:05:36.093Z,79.10
2018-04-30T09:08:39.297Z,81.70
2018-04-30T09:11:43.312Z,78.80
2018-04-30T09:14:46.546Z,78.10
2018-04-30T09:17:49.773Z,75.10
2018-04-30T09:20:53.047Z,72.70
2018-04-30T09:23:56.263Z,69.90
2018-04-30T09:27:00.277Z,68.80
2018-04-30T09:30:03.558Z,68.60
2018-04-30T09:33:06.766Z,68.40
2018-04-30T09:36:09.973Z,68.20
2018-04-30T09:39:13.238Z,68.50
2018-04-30T09:42:16.490Z,68.30
2018-04-30T09:45:19.710Z,69.60
2018-04-30T09:48:22.943Z,68.80
2018-04-30T09:51:26.915Z,67.90
2018-04-30T09:54:30.079Z,67.60
2018-04-30T09:57:33.253Z,67.60
2018-04-30T10:00:36.499Z,67.10
2018-04-30T10:03:39.735Z,66.10
2018-04-30T10:06:42.960Z,66.70
2018-04-30T10:09:46.162Z,64.80
2018-04-30T10:12:49.506Z,66.00
2018-04-30T10:15:53.525Z,62.50
2018-04-30T10:18:56.732Z,62.30
2018-04-30T10:22:00.014Z,62.00
2018-04-30T10:25:03.246Z,61.90
2018-04-30T10:28:06.473Z,61.00
2018-04-30T10:31:09.732Z,60.00
2018-04-30T10:34:13.676Z,59.00
2018-04-30T10:37:16.908Z,58.60
2018-04-30T10:40:20.128Z,56.70
2018-04-30T10:43:24.095Z,51.20
2018-04-30T10:46:27.272Z,50.90
2018-04-30T10:49:30.500Z,52.90
2018-04-30T10:52:35.556Z,54.70
2018-04-30T10:55:38.829Z,55.10
2018-04-30T10:58:42.819Z,49.70
2018-04-30T11:01:46.025Z,49.40
2018-04-30T11:04:49.473Z,47.20
2018-04-30T11:07:52.719Z,46.30
2018-04-30T11:10:55.971Z,47.70
2018-04-30T11:13:59.193Z,49.80
2018-04-30T11:17:02.414Z,52.00
2018-04-30T11:20:06.382Z,54.30
2018-04-30T11:23:09.558Z,54.70
2018-04-30T11:26:15.658Z,56.00
2018-04-30T11:29:19.938Z,53.90
2018-04-30T11:32:23.966Z,53.80
2018-04-30T11:35:27.254Z,52.10
2018-04-30T11:38:30.597Z,51.70
2018-04-30T11:41:33.872Z,50.90
2018-04-30T11:44:37.177Z,51.60
2018-04-30T11:47:40.443Z,49.30
2018-04-30T11:50:43.800Z,49.20
2018-04-30T11:53:47.130Z,52.30
2018-04-30T11:56:51.902Z,54.30
2018-04-30T11:59:55.052Z,54.20
2018-04-30T12:02:59.607Z,51.80
2018-04-30T12:06:03.684Z,52.00
2018-04-30T12:09:07.044Z,51.90
2018-04-30T12:12:10.438Z,51.20
2018-04-30T12:15:14.619Z,52.20
2018-04-30T12:18:17.910Z,52.00
2018-04-30T12:21:21.993Z,49.60
2018-04-30T12:24:25.832Z,50.10
2018-04-30T12:27:29.144Z,49.10
2018-04-30T12:30:33.214Z,51.20
2018-04-30T12:33:38.049Z,51.00
2018-04-30T12:40:12.019Z,51.00
2018-04-30T12:43:15.244Z,51.40
2018-04-30T12:46:18.675Z,51.80
2018-04-30T12:49:22.756Z,51.00
2018-04-30T12:52:26.683Z,51.80
2018-04-30T12:55:30.632Z,51.60
2018-04-30T12:58:33.944Z,51.30
2018-04-30T13:01:37.214Z,51.70
2018-04-30T13:04:40.521Z,53.00
2018-04-30T13:07:44.750Z,53.00
2018-04-30T13:10:49.051Z,52.10
2018-04-30T13:13:52.329Z,49.60
2018-04-30T13:16:56.331Z,50.40
2018-04-30T13:20:00.112Z,50.20
2018-04-30T13:23:03.466Z,48.60
2018-04-30T13:26:07.998Z,49.40
2018-04-30T13:29:11.200Z,49.30
2018-04-30T13:32:15.551Z,49.80
2018-04-30T13:35:18.940Z,49.50
2018-04-30T13:38:22.178Z,49.30
2018-04-30T13:41:26.546Z,47.40
2018-04-30T13:44:29.826Z,49.80
2018-04-30T13:47:33.116Z,49.70
2018-04-30T13:50:36.402Z,47.20
2018-04-30T13:53:52.432Z,47.60
2018-04-30T13:56:56.687Z,48.80
2018-04-30T13:59:59.908Z,50.00
2018-04-30T14:03:03.109Z,48.80
2018-04-30T14:06:06.933Z,50.30
2018-04-30T14:09:10.416Z,51.00
2018-04-30T14:12:14.441Z,48.40
2018-04-30T14:15:17.685Z,48.30
2018-04-30T14:18:21.444Z,46.60
2018-04-30T14:21:24.686Z,47.50
2018-04-30T14:24:27.825Z,46.60
2018-04-30T14:27:33.365Z,47.60
2018-04-30T14:30:36.657Z,47.40
2018-04-30T14:33:40.702Z,46.30
2018-04-30T14:36:45.659Z,47.00
2018-04-30T14:39:50.104Z,46.80
2018-04-30T14:42:53.820Z,46.40
2018-04-30T14:45:57.198Z,45.60
2018-04-30T14:49:02.687Z,46.70
2018-04-30T14:52:06.710Z,45.30
2018-04-30T14:55:10.048Z,45.30
2018-04-30T14:58:13.253Z,45.70
2018-04-30T15:01:20.193Z,45.90
2018-04-30T15:04:23.461Z,46.00
2018-04-30T15:07:26.764Z,45.20
2018-04-30T15:10:32.134Z,44.50
2018-04-30T15:13:36.220Z,44.90
2018-04-30T15:16:42.289Z,43.50
2018-04-30T15:19:45.475Z,42.00
2018-04-30T15:22:49.140Z,41.60
2018-04-30T15:25:52.670Z,42.70
2018-04-30T15:28:56.766Z,42.20
2018-04-30T15:32:06.751Z,41.90
2018-04-30T15:35:11.103Z,44.10
2018-04-30T15:38:14.535Z,43.80
2018-04-30T15:41:18.130Z,45.10
2018-04-30T15:44:24.134Z,44.90
2018-04-30T15:47:27.643Z,46.00
2018-04-30T15:50:31.030Z,44.80
2018-04-30T15:53:34.399Z,46.50
2018-04-30T15:56:37.697Z,47.40
2018-04-30T15:59:41.019Z,47.40
2018-04-30T16:02:46.676Z,49.30
2018-04-30T16:05:49.953Z,49.20
2018-04-30T16:08:53.281Z,49.00
2018-04-30T16:11:56.693Z,48.90
2018-04-30T16:15:00.067Z,49.10
2018-04-30T16:18:04.191Z,50.50
2018-04-30T16:21:07.439Z,50.30
2018-04-30T16:24:11.230Z,48.90
2018-04-30T16:27:14.604Z,47.30
2018-04-30T16:30:17.887Z,46.70
2018-04-30T16:33:21.961Z,45.00
2018-04-30T16:36:25.388Z,44.70
2018-04-30T16:39:29.135Z,44.60
2018-04-30T16:42:32.311Z,43.80
2018-04-30T16:45:38.331Z,43.60
2018-04-30T16:48:41.691Z,43.50
2018-04-30T16:51:45.099Z,43.50
2018-04-30T16:54:48.887Z,42.30
2018-04-30T16:57:53.406Z,42.30
2018-04-30T17:00:56.690Z,41.80
2018-04-30T17:04:01.869Z,43.10
2018-04-30T17:07:05.216Z,42.00
2018-04-30T17:10:10.993Z,43.10
2018-04-30T17:13:14.445Z,42.80
2018-04-30T17:16:19.908Z,42.90
2018-04-30T17:19:24.855Z,44.00
2018-04-30T17:22:28.199Z,43.80
2018-04-30T17:25:32.129Z,43.50
2018-04-30T17:28:35.725Z,44.70
2018-04-30T17:31:38.990Z,44.30
2018-04-30T17:34:43.620Z,43.80
2018-04-30T17:37:46.898Z,43.80
2018-04-30T17:40:50.545Z,43.70
2018-04-30T17:43:53.895Z,43.80
2018-04-30T17:46:57.424Z,45.10
2018-04-30T17:50:04.790Z,45.40
2018-04-30T17:53:08.186Z,45.50
2018-04-30T17:56:13.955Z,46.70
2018-04-30T18:05:46.582Z,47.00
2018-04-30T18:08:49.956Z,46.80
2018-04-30T18:11:53.346Z,46.50
2018-04-30T18:14:56.596Z,47.80
2018-04-30T18:17:59.801Z,48.20
2018-04-30T18:21:04.283Z,47.50
2018-04-30T18:24:07.673Z,48.10
2018-04-30T18:27:10.989Z,48.80
2018-04-30T18:30:15.506Z,51.10
2018-04-30T18:33:19.022Z,48.60
2018-04-30T18:36:22.210Z,49.80
2018-04-30T18:39:26.840Z,50.00
2018-04-30T18:42:30.118Z,49.90
2018-04-30T18:45:34.340Z,49.10
2018-04-30T18:48:39.887Z,48.70
2018-04-30T18:51:43.928Z,51.30
2018-04-30T18:54:47.917Z,50.50
2018-04-30T18:57:51.343Z,50.20
2018-04-30T19:00:55.750Z,50.50
2018-04-30T19:04:00.124Z,49.50
2018-04-30T19:07:03.321Z,52.80
2018-04-30T19:10:07.295Z,51.60
2018-04-30T19:13:11.302Z,50.40
2018-04-30T19:16:15.472Z,51.20
2018-04-30T19:19:21.585Z,51.10
2018-04-30T19:22:25.418Z,49.90
2018-04-30T19:25:30.342Z,51.00
2018-04-30T19:28:34.701Z,50.20
2018-04-30T19:31:38.229Z,50.00
2018-04-30T19:34:41.439Z,51.40
2018-04-30T19:37:44.748Z,51.50
2018-04-30T19:41:11.019Z,54.60
2018-04-30T19:44:15.461Z,54.30
2018-04-30T19:47:18.692Z,53.60
2018-04-30T19:50:25.427Z,55.10
2018-04-30T19:53:29.868Z,54.80
2018-04-30T19:56:34.086Z,55.90
2018-04-30T19:59:37.335Z,55.30
2018-04-30T20:02:40.600Z,53.40
2018-04-30T20:05:43.887Z,52.90
2018-04-30T20:08:47.239Z,51.80
2018-04-30T20:11:50.519Z,52.50
2018-04-30T20:14:54.536Z,53.40
2018-04-30T20:17:57.789Z,53.20
2018-04-30T20:21:01.021Z,53.80
2018-04-30T20:24:04.299Z,52.70
2018-04-30T20:27:08.290Z,53.20
2018-04-30T20:30:11.532Z,52.90
2018-04-30T20:33:15.189Z,53.00
2018-04-30T20:36:22.605Z,53.20
2018-04-30T20:39:25.947Z,53.10
2018-04-30T20:42:30.311Z,54.30
2018-04-30T20:45:33.540Z,52.80
2018-04-30T20:48:36.772Z,52.60
2018-04-30T20:51:40.200Z,53.50
2018-04-30T20:54:43.464Z,54.60
2018-04-30T20:57:46.665Z,52.30
2018-04-30T21:00:51.061Z,53.20
2018-04-30T21:03:54.867Z,53.00
2018-04-30T21:06:58.157Z,54.00
2018-04-30T21:10:01.546Z,52.60
2018-04-30T21:13:04.813Z,53.60
2018-04-30T21:16:08.014Z,53.20
2018-04-30T21:19:11.229Z,53.60
2018-04-30T21:22:15.826Z,54.60
2018-04-30T21:25:19.871Z,54.70
2018-04-30T21:28:23.571Z,54.40
2018-04-30T21:31:26.814Z,54.30
2018-04-30T21:34:31.335Z,55.00
2018-04-30T21:37:35.937Z,55.50
2018-04-30T21:40:46.795Z,56.50
2018-04-30T21:47:25.809Z,56.40
2018-04-30T21:50:29.241Z,58.10
2018-04-30T21:53:33.356Z,56.70
2018-04-30T21:56:37.338Z,56.80
2018-04-30T22:03:03.928Z,57.00
2018-04-30T22:06:09.337Z,56.10
2018-04-30T22:09:12.703Z,57.50
2018-04-30T22:12:16.271Z,56.30
2018-04-30T22:15:19.553Z,56.80
2018-04-30T22:18:23.023Z,57.40
2018-04-30T22:21:26.251Z,57.30
2018-04-30T22:24:30.812Z,58.10
2018-04-30T22:27:36.178Z,56.90
2018-04-30T22:34:22.950Z,56.30
2018-04-30T22:37:26.319Z,56.80
2018-04-30T22:40:31.686Z,56.90
2018-04-30T22:43:34.877Z,57.80
2018-04-30T22:46:38.197Z,58.30
2018-04-30T22:49:42.229Z,57.70
2018-04-30T22:52:45.517Z,57.50
2018-04-30T22:55:52.111Z,57.80
2018-04-30T22:58:55.401Z,57.60
2018-04-30T23:01:59.931Z,57.90
2018-04-30T23:05:03.179Z,57.60
2018-04-30T23:08:06.464Z,57.00
2018-04-30T23:11:12.184Z,58.50
2018-04-30T23:14:16.115Z,56.80
2018-04-30T23:17:20.278Z,57.70
2018-04-30T23:20:26.346Z,56.90
2018-04-30T23:23:29.641Z,56.10
2018-04-30T23:26:33.063Z,56.40
2018-04-30T23:29:39.934Z,55.90
2018-04-30T23:36:18.351Z,55.70
2018-04-30T23:42:46.410Z,56.10
2018-04-30T23:45:50.493Z,56.10
2018-04-30T23:49:00.187Z,57.00
2018-04-30T23:52:03.608Z,56.70
2018-04-30T23:55:08.769Z,57.40
2018-04-30T23:58:13.941Z,56.90
